Time;durP1;ratioP1;P1;durP2;ratioP2;P2;SDS_P1;SDS_P2;PMS_P1;PMS_P2;Temp;Humidity;BMP_temperature;BMP_pressure;BME280_temperature;BME280_humidity;BME280_pressure;Samples;Min_cycle;Max_cycle;Signal;HPM_P1;HPM_P2
2022/06/16 00:00:26;;;;;;;;;;;;;;;25.82;24.88;99860.78;5115954;28;20348;-70
2022/06/16 00:02:52;;;;;;;;;;;;;;;25.81;24.92;99873.63;5115525;28;19932;-70
2022/06/16 00:05:19;;;;;;;;;;;;;;;25.82;25.07;99879.94;5115354;28;19922;-70
2022/06/16 00:07:44;;;;;;;;;;;;;;;25.82;24.87;99877.19;5115784;28;19969;-70
2022/06/16 00:10:09;;;;;;;;;;;;;;;25.81;25.05;99873.63;5116094;28;19916;-70
2022/06/16 00:12:35;;;;;;;;;;;;;;;25.81;24.96;99881.84;5114800;28;20354;-70
2022/06/16 00:15:00;;;;;;;;;;;;;;;25.81;24.98;99879.09;5115595;28;20370;-70
2022/06/16 00:17:25;;;;;;;;;;;;;;;25.82;25.04;99879.94;5115330;28;19923;-70
2022/06/16 00:19:51;;;;;;;;;;;;;;;25.82;25.22;99888.16;5115457;28;19923;-70
2022/06/16 00:22:16;;;;;;;;;;;;;;;25.81;25.18;99883.78;5116242;28;19919;-70
2022/06/16 00:24:41;;;;;;;;;;;;;;;25.81;25.18;99884.56;5116474;28;20014;-70
2022/06/16 00:27:07;;;;;;;;;;;;;;;25.81;24.94;99889.25;5116491;28;20358;-70
2022/06/16 00:29:33;;;;;;;;;;;;;;;25.81;24.98;99889.25;5116285;28;19996;-70
2022/06/16 00:31:58;;;;;;;;;;;;;;;25.81;25.33;99884.56;5118216;28;19920;-70
2022/06/16 00:34:24;;;;;;;;;;;;;;;25.80;25.21;99891.19;5116673;28;19969;-70
2022/06/16 00:36:49;;;;;;;;;;;;;;;25.80;25.33;99884.88;5114631;28;19922;-70
2022/06/16 00:39:14;;;;;;;;;;;;;;;25.80;25.27;99891.19;5114713;28;19915;-70
2022/06/16 00:41:40;;;;;;;;;;;;;;;25.81;25.23;99895.53;5114732;28;20342;-70
2022/06/16 00:44:37;;;;;;;;;;;;;;;25.80;25.15;99887.63;5114583;28;20003;-70
2022/06/16 00:47:02;;;;;;;;;;;;;;;25.81;25.31;99889.25;5114084;28;20002;-70
2022/06/16 00:49:28;;;;;;;;;;;;;;;25.79;25.34;99886.00;5115059;28;19992;-70
2022/06/16 00:51:54;;;;;;;;;;;;;;;25.80;25.29;99882.97;5114545;28;20002;-70
2022/06/16 00:54:26;;;;;;;;;;;;;;;25.81;25.27;99883.78;5114410;28;19919;-70
2022/06/16 00:56:52;;;;;;;;;;;;;;;25.79;25.38;99883.28;5110193;28;19943;-70
2022/06/16 00:59:18;;;;;;;;;;;;;;;25.78;25.49;99879.69;5094258;28;19963;-70
2022/06/16 01:01:43;;;;;;;;;;;;;;;25.80;25.33;99887.63;5092754;28;19973;-70
2022/06/16 01:06:53;;;;;;;;;;;;;;;25.78;25.55;99885.16;5094941;28;19927;-70
2022/06/16 01:09:19;;;;;;;;;;;;;;;25.79;25.61;99886.00;5097772;28;19916;-70
2022/06/16 01:14:50;;;;;;;;;;;;;;;25.78;25.58;99887.91;5098119;28;20357;-70
2022/06/16 01:17:25;;;;;;;;;;;;;;;25.77;25.56;99882.75;5097681;28;19916;-70
2022/06/16 01:20:02;;;;;;;;;;;;;;;25.77;25.45;99882.75;5096424;28;19941;-70
2022/06/16 01:22:43;;;;;;;;;;;;;;;25.78;25.59;99884.38;5098045;28;19940;-70
2022/06/16 01:25:27;;;;;;;;;;;;;;;25.78;25.44;99893.38;5097968;28;19917;-70
2022/06/16 01:28:11;;;;;;;;;;;;;;;25.78;25.43;99887.09;5097852;28;20029;-70
2022/06/16 01:30:54;;;;;;;;;;;;;;;25.77;25.75;99883.56;5097926;28;20015;-70
2022/06/16 01:33:24;;;;;;;;;;;;;;;25.77;25.65;99894.50;5097956;28;19944;-70
2022/06/16 01:35:53;;;;;;;;;;;;;;;25.77;25.56;99901.91;5096270;28;20453;-70
2022/06/16 01:38:21;;;;;;;;;;;;;;;25.76;25.71;99892.06;5097311;28;19920;-70
2022/06/16 01:41:18;;;;;;;;;;;;;;;25.76;25.75;99892.88;5097666;28;19960;-70
2022/06/16 01:43:45;;;;;;;;;;;;;;;25.77;25.70;99894.50;5055199;28;20012;-70
2022/06/16 01:46:17;;;;;;;;;;;;;;;25.77;25.65;99893.72;5054674;28;20292;-70
2022/06/16 01:48:43;;;;;;;;;;;;;;;25.77;25.56;99899.19;5054758;28;20035;-70
2022/06/16 01:51:12;;;;;;;;;;;;;;;25.77;25.57;99900.00;5054851;28;19998;-70
2022/06/16 01:53:58;;;;;;;;;;;;;;;25.77;25.71;99891.78;5054790;28;19917;-70
2022/06/16 01:56:37;;;;;;;;;;;;;;;25.77;25.62;99894.50;5054442;28;19917;-70
2022/06/16 01:59:03;;;;;;;;;;;;;;;25.78;25.63;99896.13;5073956;28;20009;-70
2022/06/16 02:01:29;;;;;;;;;;;;;;;25.77;25.82;99901.91;5074593;28;19920;-70
2022/06/16 02:04:02;;;;;;;;;;;;;;;25.78;25.75;99900.78;5058009;28;19917;-70
2022/06/16 02:06:31;;;;;;;;;;;;;;;25.76;25.69;99901.09;5074784;28;19917;-70
2022/06/16 02:08:57;;;;;;;;;;;;;;;25.78;25.90;99911.75;5074520;28;19916;-70
2022/06/16 02:11:23;;;;;;;;;;;;;;;25.78;25.98;99906.25;5074523;28;19920;-70
2022/06/16 02:13:51;;;;;;;;;;;;;;;25.78;25.81;99903.53;5074970;28;19917;-70
2022/06/16 02:16:18;;;;;;;;;;;;;;;25.76;25.75;99898.34;5074375;28;19940;-70
2022/06/16 02:18:43;;;;;;;;;;;;;;;25.77;25.97;99899.19;5070016;28;19920;-70
2022/06/16 02:21:16;;;;;;;;;;;;;;;25.77;25.88;99907.41;5117657;28;20331;-71
2022/06/16 02:23:41;;;;;;;;;;;;;;;25.77;26.02;99910.94;5116244;28;19916;-70
2022/06/16 02:26:07;;;;;;;;;;;;;;;25.76;25.95;99914.78;5117201;28;19916;-71
2022/06/16 02:28:45;;;;;;;;;;;;;;;25.77;25.93;99912.88;5117951;28;19935;-70
2022/06/16 02:31:10;;;;;;;;;;;;;;;25.76;26.33;99919.44;5117700;28;20372;-70
2022/06/16 02:34:11;;;;;;;;;;;;;;;25.74;26.37;99905.25;5117802;28;19919;-70
2022/06/16 02:36:36;;;;;;;;;;;;;;;25.74;26.43;99908.00;5074315;28;20379;-70
2022/06/16 02:39:02;;;;;;;;;;;;;;;25.74;26.12;99910.72;5074829;28;20002;-70
2022/06/16 02:41:50;;;;;;;;;;;;;;;25.74;26.17;99913.47;5074311;28;20362;-70
2022/06/16 02:44:45;;;;;;;;;;;;;;;25.74;26.42;99911.53;5055949;28;20111;-70
2022/06/16 02:47:16;;;;;;;;;;;;;;;25.74;26.44;99911.53;5034143;28;19980;-70
2022/06/16 02:49:47;;;;;;;;;;;;;;;25.74;26.30;99910.72;5035137;28;19917;-70
2022/06/16 02:52:16;;;;;;;;;;;;;;;25.74;26.57;99913.47;5034381;28;19921;-70
2022/06/16 02:54:43;;;;;;;;;;;;;;;25.74;26.67;99910.72;5034581;28;19917;-70
2022/06/16 02:57:11;;;;;;;;;;;;;;;25.74;26.74;99905.25;5030847;28;19924;-70
2022/06/16 02:59:38;;;;;;;;;;;;;;;25.74;26.69;99902.50;4997893;28;19968;-70
2022/06/16 03:02:07;;;;;;;;;;;;;;;25.73;26.79;99904.41;4997773;28;19937;-70
2022/06/16 03:04:36;;;;;;;;;;;;;;;25.73;26.72;99906.34;5013939;28;20387;-70
2022/06/16 03:07:01;;;;;;;;;;;;;;;25.74;26.78;99910.72;4997723;28;19918;-70
2022/06/16 03:09:27;;;;;;;;;;;;;;;25.74;26.73;99913.47;5015388;28;19924;-70
2022/06/16 03:11:52;;;;;;;;;;;;;;;25.74;26.67;99916.19;5053373;28;19921;-70
2022/06/16 03:14:19;;;;;;;;;;;;;;;25.74;26.82;99913.47;5053155;28;19917;-71
2022/06/16 03:16:44;;;;;;;;;;;;;;;25.74;26.80;99910.72;5053479;28;20276;-71
2022/06/16 03:19:10;;;;;;;;;;;;;;;25.76;26.69;99905.75;5052984;28;19927;-71
2022/06/16 03:21:35;;;;;;;;;;;;;;;25.77;26.75;99915.59;5053059;28;19917;-70
2022/06/16 03:24:00;;;;;;;;;;;;;;;25.79;26.95;99919.66;5068377;28;19916;-71
2022/06/16 03:26:25;;;;;;;;;;;;;;;25.79;27.00;99918.84;5075156;28;19916;-71
2022/06/16 03:28:51;;;;;;;;;;;;;;;25.79;26.78;99916.09;5074788;28;20413;-70
2022/06/16 03:31:16;;;;;;;;;;;;;;;25.80;26.68;99918.56;5074934;28;19916;-70
2022/06/16 03:33:42;;;;;;;;;;;;;;;25.81;26.82;99916.63;5073504;28;20423;-71
2022/06/16 03:36:07;;;;;;;;;;;;;;;25.81;27.02;99916.63;5075407;28;19961;-71
2022/06/16 03:41:06;;;;;;;;;;;;;;;25.80;26.78;99917.72;5095144;28;19920;-71
2022/06/16 03:43:32;;;;;;;;;;;;;;;25.78;26.88;99909.81;5094948;28;19920;-71
2022/06/16 03:45:57;;;;;;;;;;;;;;;25.77;26.97;99905.47;5093640;28;19916;-71
2022/06/16 03:48:22;;;;;;;;;;;;;;;25.78;26.92;99911.75;5095131;28;19920;-70
2022/06/16 03:50:48;;;;;;;;;;;;;;;25.80;26.72;99907.59;5095117;28;20376;-71
2022/06/16 03:53:13;;;;;;;;;;;;;;;25.81;26.87;99911.94;5095698;28;19916;-71
2022/06/16 03:55:38;;;;;;;;;;;;;;;25.79;26.89;99905.16;5097633;28;20404;-71
2022/06/16 03:58:03;;;;;;;;;;;;;;;25.82;26.59;99918.25;5105115;28;19977;-71
2022/06/16 04:00:29;;;;;;;;;;;;;;;25.79;26.53;99908.69;5115845;28;20018;-71
2022/06/16 04:05:38;;;;;;;;;;;;;;;25.80;26.49;99904.03;5115085;28;19924;-71
2022/06/16 04:08:03;;;;;;;;;;;;;;;25.81;26.51;99905.66;5115125;28;19920;-70
2022/06/16 04:10:29;;;;;;;;;;;;;;;25.82;26.49;99912.78;5115471;28;19923;-70
2022/06/16 04:12:54;;;;;;;;;;;;;;;25.85;26.27;99904.78;5115237;28;19916;-71
2022/06/16 04:15:19;;;;;;;;;;;;;;;25.87;26.40;99918.13;5114892;28;19916;-71
2022/06/16 04:17:44;;;;;;;;;;;;;;;25.87;26.16;99901.72;5115281;28;19916;-71
2022/06/16 04:20:13;;;;;;;;;;;;;;;25.88;26.20;99897.06;5114835;28;20362;-71
2022/06/16 04:22:38;;;;;;;;;;;;;;;25.85;26.40;99895.72;5114593;28;19941;-71
2022/06/16 04:25:04;;;;;;;;;;;;;;;25.86;26.25;99891.88;5114606;28;19920;-71
2022/06/16 04:27:29;;;;;;;;;;;;;;;25.90;26.11;99892.91;5113531;28;19969;-71
2022/06/16 04:29:55;;;;;;;;;;;;;;;25.90;26.19;99890.16;5114611;28;20370;-70
2022/06/16 04:32:20;;;;;;;;;;;;;;;25.91;25.80;99883.59;5114360;28;19923;-71
2022/06/16 04:34:45;;;;;;;;;;;;;;;25.93;25.93;99886.03;5114651;28;19922;-71
2022/06/16 04:37:11;;;;;;;;;;;;;;;25.92;25.93;99879.72;5114700;28;19926;-70
2022/06/16 04:39:36;;;;;;;;;;;;;;;25.91;25.91;99891.00;5114065;28;19916;-70
2022/06/16 04:42:02;;;;;;;;;;;;;;;25.86;26.06;99886.41;5112219;28;19916;-70
2022/06/16 04:44:27;;;;;;;;;;;;;;;25.88;26.18;99886.13;5114063;28;19964;-70
2022/06/16 04:46:52;;;;;;;;;;;;;;;25.89;26.12;99883.09;5114044;28;19927;-70
2022/06/16 04:49:17;;;;;;;;;;;;;;;25.89;25.86;99880.34;5114284;28;20041;-70
2022/06/16 04:51:43;;;;;;;;;;;;;;;25.90;26.05;99884.69;5114427;28;20377;-71
2022/06/16 04:54:08;;;;;;;;;;;;;;;25.91;25.74;99882.78;5114191;28;20006;-70
2022/06/16 04:56:33;;;;;;;;;;;;;;;25.82;25.93;99885.41;5114046;28;19950;-69
2022/06/16 04:58:59;;;;;;;;;;;;;;;25.75;25.92;99876.75;5096573;28;19927;-70
2022/06/16 05:01:24;;;;;;;;;;;;;;;25.57;26.29;99872.97;5093266;28;19946;-70
2022/06/16 05:03:49;;;;;;;;;;;;;;;25.57;26.29;99868.31;5092093;28;19916;-70
2022/06/16 05:06:15;;;;;;;;;;;;;;;25.53;26.19;99874.72;5092230;28;19974;-70
2022/06/16 05:08:40;;;;;;;;;;;;;;;25.58;26.27;99880.91;5093923;28;19917;-71
2022/06/16 05:11:05;;;;;;;;;;;;;;;25.61;26.13;99865.78;5092252;28;19916;-70
2022/06/16 05:13:31;;;;;;;;;;;;;;;25.61;26.12;99863.88;5093710;28;19917;-70
2022/06/16 05:15:56;;;;;;;;;;;;;;;25.68;26.30;99864.28;5093605;28;19923;-70
2022/06/16 05:18:21;;;;;;;;;;;;;;;25.73;26.15;99860.63;5093187;28;19916;-70
2022/06/16 05:20:46;;;;;;;;;;;;;;;25.74;26.02;99873.22;5093311;28;19920;-70
2022/06/16 05:23:12;;;;;;;;;;;;;;;25.76;26.02;99870.19;5093271;28;20320;-70
2022/06/16 05:25:37;;;;;;;;;;;;;;;25.66;25.99;99872.00;5093448;28;20003;-70
2022/06/16 05:28:03;;;;;;;;;;;;;;;25.72;25.96;99877.38;5091865;28;19920;-70
2022/06/16 05:30:29;;;;;;;;;;;;;;;25.65;25.85;99881.31;5093294;28;19920;-71
2022/06/16 05:32:54;;;;;;;;;;;;;;;25.73;25.80;99884.47;5093548;28;19916;-71
2022/06/16 05:35:19;;;;;;;;;;;;;;;25.72;25.72;99880.91;5092935;28;19917;-70
2022/06/16 05:37:44;;;;;;;;;;;;;;;25.79;25.48;99886.00;5093342;28;19927;-70
2022/06/16 05:40:10;;;;;;;;;;;;;;;25.83;25.67;99878.81;5093261;28;19916;-70
2022/06/16 05:42:35;;;;;;;;;;;;;;;25.72;25.56;99885.59;5092930;28;20367;-71
2022/06/16 05:45:00;;;;;;;;;;;;;;;25.80;25.38;99887.63;5094010;28;20007;-71
2022/06/16 05:47:25;;;;;;;;;;;;;;;25.74;25.51;99888.84;5093330;28;20371;-71
2022/06/16 05:49:51;;;;;;;;;;;;;;;25.73;25.52;99889.94;5093215;28;19951;-70
2022/06/16 05:52:20;;;;;;;;;;;;;;;25.79;25.46;99886.00;5093469;28;19923;-71
2022/06/16 05:54:46;;;;;;;;;;;;;;;25.85;25.42;99884.78;5096647;28;19923;-71
2022/06/16 05:57:11;;;;;;;;;;;;;;;25.85;25.25;99887.53;5097745;28;19916;-70
2022/06/16 05:59:36;;;;;;;;;;;;;;;25.87;25.26;99893.50;5117503;28;19916;-70
2022/06/16 06:02:02;;;;;;;;;;;;;;;25.87;25.22;99888.03;5117500;28;19916;-71
2022/06/16 06:04:28;;;;;;;;;;;;;;;25.88;25.24;99895.13;5117084;28;19961;-70
2022/06/16 06:06:53;;;;;;;;;;;;;;;25.89;25.44;99899.50;5117024;28;19916;-70
2022/06/16 06:17:30;;;;;;;;;;;;;;;25.81;25.17;99906.47;5116879;28;19965;-70
2022/06/16 06:19:56;;;;;;;;;;;;;;;25.85;25.43;99909.41;5115109;28;20375;-70
2022/06/16 06:22:24;;;;;;;;;;;;;;;25.85;25.16;99904.78;5117225;28;19919;-70
2022/06/16 06:24:52;;;;;;;;;;;;;;;25.89;25.27;99915.94;5119469;28;20006;-70
2022/06/16 06:27:19;;;;;;;;;;;;;;;25.88;25.33;99922.50;5115274;28;19972;-70
2022/06/16 06:29:45;;;;;;;;;;;;;;;25.84;25.32;99916.81;5115554;28;19916;-70
2022/06/16 06:32:10;;;;;;;;;;;;;;;25.80;25.49;99925.94;5116526;28;19916;-70
2022/06/16 06:34:36;;;;;;;;;;;;;;;25.78;25.35;99911.75;5116938;28;19916;-71
2022/06/16 06:37:01;;;;;;;;;;;;;;;25.75;25.50;99921.38;5116211;28;20006;-70
2022/06/16 06:39:26;;;;;;;;;;;;;;;25.82;25.46;99929.19;5116331;28;19924;-70
2022/06/16 06:41:51;;;;;;;;;;;;;;;25.82;25.49;99918.25;5116641;28;19916;-70
2022/06/16 06:44:17;;;;;;;;;;;;;;;25.83;25.45;99922.59;5116656;28;19916;-68
2022/06/16 06:46:42;;;;;;;;;;;;;;;25.76;25.48;99928.47;5116375;28;19926;-68
2022/06/16 06:49:07;;;;;;;;;;;;;;;25.78;25.26;99925.41;5116274;28;19954;-68
2022/06/16 06:51:33;;;;;;;;;;;;;;;25.70;25.51;99934.31;5116562;28;20022;-72
2022/06/16 06:53:58;;;;;;;;;;;;;;;25.77;25.49;99932.03;5116966;28;19916;-70
2022/06/16 06:56:24;;;;;;;;;;;;;;;25.78;25.36;99939.09;5116208;28;19915;-69
2022/06/16 06:58:50;;;;;;;;;;;;;;;25.77;25.34;99926.56;5102406;28;19942;-70
2022/06/16 07:01:15;;;;;;;;;;;;;;;25.77;25.18;99932.03;5095458;28;19916;-69
2022/06/16 07:03:43;;;;;;;;;;;;;;;25.75;25.31;99926.84;5095888;28;19955;-71
2022/06/16 07:06:08;;;;;;;;;;;;;;;25.75;25.11;99931.50;5094473;28;20366;-71
2022/06/16 07:08:34;;;;;;;;;;;;;;;25.76;25.31;99930.38;5094148;28;19920;-69
2022/06/16 07:10:59;;;;;;;;;;;;;;;25.80;25.20;99917.72;5094721;28;20355;-69
2022/06/16 07:13:25;;;;;;;;;;;;;;;25.80;25.01;99925.94;5095324;28;19923;-69
2022/06/16 07:15:50;;;;;;;;;;;;;;;25.79;25.16;99924.31;5095088;28;19924;-69
2022/06/16 07:18:16;;;;;;;;;;;;;;;25.79;25.02;99925.13;5094179;28;19916;-70
2022/06/16 07:20:41;;;;;;;;;;;;;;;25.80;25.05;99920.44;5094912;28;19967;-69
2022/06/16 07:23:06;;;;;;;;;;;;;;;25.81;25.11;99933.03;5095343;28;19923;-71
2022/06/16 07:25:32;;;;;;;;;;;;;;;25.81;25.15;99916.63;5093533;28;20011;-71
2022/06/16 07:27:58;;;;;;;;;;;;;;;25.79;24.92;99918.84;5094884;28;19938;-70
2022/06/16 07:30:23;;;;;;;;;;;;;;;25.80;25.10;99939.63;5095053;28;20285;-70
2022/06/16 07:32:49;;;;;;;;;;;;;;;25.83;25.01;99931.59;5095107;28;20003;-70
2022/06/16 07:35:15;;;;;;;;;;;;;;;25.85;25.13;99934.06;5095663;28;19938;-69
2022/06/16 07:37:40;;;;;;;;;;;;;;;25.84;24.94;99933.25;5094167;28;19949;-69
2022/06/16 07:40:06;;;;;;;;;;;;;;;25.85;25.00;99934.88;5095175;28;20253;-69
2022/06/16 07:42:31;;;;;;;;;;;;;;;25.88;24.98;99927.97;5095741;28;19928;-70
2022/06/16 07:44:56;;;;;;;;;;;;;;;25.90;25.20;99931.22;5095055;28;20371;-70
2022/06/16 07:47:21;;;;;;;;;;;;;;;25.90;24.98;99935.91;5094902;28;20011;-70
2022/06/16 07:49:49;;;;;;;;;;;;;;;25.92;25.25;99934.47;5094946;28;19973;-69
2022/06/16 07:52:14;;;;;;;;;;;;;;;25.92;25.08;99937.19;5093622;28;20084;-70
2022/06/16 07:54:39;;;;;;;;;;;;;;;25.92;25.00;99939.94;5094534;28;20370;-70
2022/06/16 07:57:05;;;;;;;;;;;;;;;25.92;25.36;99942.69;5093427;28;20293;-71
2022/06/16 07:59:30;;;;;;;;;;;;;;;25.91;25.34;99943.00;5112447;28;19916;-70
2022/06/16 08:01:55;;;;;;;;;;;;;;;25.88;25.20;99938.94;5114906;28;19916;-70
2022/06/16 08:04:21;;;;;;;;;;;;;;;25.88;25.17;99936.19;5114858;27;19987;-69
2022/06/16 08:06:46;;;;;;;;;;;;;;;25.88;25.12;99946.34;5115033;28;19969;-70
2022/06/16 08:09:11;;;;;;;;;;;;;;;25.89;25.00;99951.50;5113969;28;19916;-69
2022/06/16 08:14:20;;;;;;;;;;;;;;;25.91;24.86;99949.28;5115326;28;19974;-69
2022/06/16 08:16:46;;;;;;;;;;;;;;;25.89;24.93;99945.22;5114251;28;19915;-69
2022/06/16 08:19:11;;;;;;;;;;;;;;;25.90;24.92;99936.69;5115105;28;20023;-69
2022/06/16 08:21:37;;;;;;;;;;;;;;;25.84;24.92;99944.19;5115008;28;19931;-69
2022/06/16 08:24:02;;;;;;;;;;;;;;;25.87;25.20;99942.75;5113724;28;19995;-70
2022/06/16 08:26:27;;;;;;;;;;;;;;;25.90;25.21;99946.84;5114958;28;19939;-69
2022/06/16 08:28:53;;;;;;;;;;;;;;;25.88;25.13;99938.94;5114194;28;19920;-68
2022/06/16 08:31:20;;;;;;;;;;;;;;;25.93;24.99;99944.31;5113324;28;19916;-68
2022/06/16 08:33:46;;;;;;;;;;;;;;;25.92;25.05;99945.41;5114248;28;20323;-67
2022/06/16 08:36:11;;;;;;;;;;;;;;;25.95;24.93;99955.81;5113785;28;19916;-69
2022/06/16 08:38:36;;;;;;;;;;;;;;;25.96;24.89;99949.22;5114023;28;19920;-68
2022/06/16 08:41:15;;;;;;;;;;;;;;;25.98;25.12;99955.19;5114381;28;20361;-68
2022/06/16 08:43:49;;;;;;;;;;;;;;;26.01;25.27;99957.34;5112506;28;19915;-68
2022/06/16 08:46:16;;;;;;;;;;;;;;;25.98;25.17;99965.34;5112856;28;20003;-68
2022/06/16 08:48:58;;;;;;;;;;;;;;;25.98;25.03;99966.16;5114126;28;20255;-68
2022/06/16 08:51:23;;;;;;;;;;;;;;;25.99;25.23;99961.47;5112503;28;19991;-68
2022/06/16 08:53:55;;;;;;;;;;;;;;;26.01;25.08;99968.31;5113842;28;19923;-68
2022/06/16 08:56:30;;;;;;;;;;;;;;;26.00;25.09;99968.59;5112333;28;20293;-68
2022/06/16 08:58:56;;;;;;;;;;;;;;;25.94;25.17;99970.63;5101301;28;20012;-69
2022/06/16 09:01:23;;;;;;;;;;;;;;;25.97;25.18;99972.72;5093242;28;20002;-68
2022/06/16 09:04:02;;;;;;;;;;;;;;;25.99;24.99;99973.25;5091923;28;20338;-68
2022/06/16 09:06:33;;;;;;;;;;;;;;;25.99;25.20;99967.78;5093078;28;19916;-68
2022/06/16 09:09:01;;;;;;;;;;;;;;;25.97;25.19;99964.53;5092900;28;19938;-68
2022/06/16 09:11:35;;;;;;;;;;;;;;;26.00;25.21;99968.59;5093087;28;19923;-68
2022/06/16 09:17:20;;;;;;;;;;;;;;;25.99;25.17;99983.38;5051226;28;20011;-69
2022/06/16 09:19:49;;;;;;;;;;;;;;;26.05;25.06;99987.66;5050630;28;19917;-69
2022/06/16 09:22:20;;;;;;;;;;;;;;;25.91;25.39;99987.59;5050874;28;19936;-69
2022/06/16 09:24:46;;;;;;;;;;;;;;;26.03;25.22;99993.44;5051221;28;19924;-69
2022/06/16 09:27:11;;;;;;;;;;;;;;;26.04;25.50;99995.09;5051189;28;19917;-69
2022/06/16 09:29:43;;;;;;;;;;;;;;;26.04;25.42;99989.59;5054849;28;20304;-69
2022/06/16 09:32:13;;;;;;;;;;;;;;;26.05;25.36;99996.69;5054776;28;19924;-67
2022/06/16 09:34:47;;;;;;;;;;;;;;;25.98;25.25;99993.53;5054310;28;19916;-68
2022/06/16 09:37:15;;;;;;;;;;;;;;;26.03;25.19;99993.44;5054105;28;20161;-68
2022/06/16 09:39:41;;;;;;;;;;;;;;;26.03;25.22;99984.44;5054281;28;19917;-69
2022/06/16 09:45:14;;;;;;;;;;;;;;;26.07;25.15;99990.09;5054288;28;20479;-68
2022/06/16 09:47:43;;;;;;;;;;;;;;;26.05;25.15;99993.94;5054264;28;20003;-68
2022/06/16 09:50:27;;;;;;;;;;;;;;;26.12;25.22;100000.97;5054877;28;20008;-69
2022/06/16 09:53:10;;;;;;;;;;;;;;;26.09;25.18;100002.38;5080978;28;19948;-68
2022/06/16 09:55:37;;;;;;;;;;;;;;;26.09;25.06;100001.56;5097308;28;20290;-69
2022/06/16 09:58:23;;;;;;;;;;;;;;;26.07;25.20;100004.59;5098191;28;20267;-69
2022/06/16 10:00:49;;;;;;;;;;;;;;;26.09;25.38;100001.56;5116240;28;19916;-69
2022/06/16 10:03:24;;;;;;;;;;;;;;;26.11;25.28;100002.06;5115698;28;19915;-69
2022/06/16 10:06:01;;;;;;;;;;;;;;;26.12;25.18;100009.19;5116765;28;19961;-69
2022/06/16 10:08:47;;;;;;;;;;;;;;;26.11;25.46;100004.81;5115454;28;19915;-70
2022/06/16 10:11:18;;;;;;;;;;;;;;;26.10;25.54;100011.41;5074009;28;20036;-70
2022/06/16 10:14:04;;;;;;;;;;;;;;;26.13;25.31;100013.53;5058348;28;19920;-70
2022/06/16 10:16:36;;;;;;;;;;;;;;;26.12;25.45;100009.19;5068732;28;19924;-70
2022/06/16 10:19:01;;;;;;;;;;;;;;;26.12;25.53;100014.66;5075250;28;20003;-69
2022/06/16 10:21:26;;;;;;;;;;;;;;;26.13;25.21;100006.16;5074218;28;20434;-69
2022/06/16 10:23:52;;;;;;;;;;;;;;;26.13;25.31;100006.16;5074068;28;19935;-69
2022/06/16 10:26:18;;;;;;;;;;;;;;;26.13;25.24;100005.31;5057266;28;19944;-69
2022/06/16 10:28:45;;;;;;;;;;;;;;;26.13;25.30;100003.41;5073988;28;19967;-68
2022/06/16 10:31:15;;;;;;;;;;;;;;;26.16;25.39;99999.25;5057237;28;19923;-70
2022/06/16 10:33:53;;;;;;;;;;;;;;;26.18;25.44;100008.81;5074043;28;19952;-69
2022/06/16 10:36:20;;;;;;;;;;;;;;;26.20;25.40;100009.31;5056972;28;19917;-69
2022/06/16 10:38:46;;;;;;;;;;;;;;;26.19;25.54;100004.13;5072939;28;20003;-69
2022/06/16 10:41:32;;;;;;;;;;;;;;;26.20;25.38;100012.03;5056240;28;19923;-69
2022/06/16 10:44:00;;;;;;;;;;;;;;;26.20;25.45;100011.25;5073164;28;20035;-69
2022/06/16 10:46:29;;;;;;;;;;;;;;;26.12;25.43;100009.19;5056776;28;19917;-68
2022/06/16 10:48:54;;;;;;;;;;;;;;;26.09;25.48;100018.00;5105806;28;19915;-69
2022/06/16 10:51:20;;;;;;;;;;;;;;;26.17;25.50;100011.84;5114994;28;20270;-69
2022/06/16 10:53:47;;;;;;;;;;;;;;;26.17;25.38;100014.56;5116913;28;19951;-69
2022/06/16 10:56:17;;;;;;;;;;;;;;;26.20;25.37;100013.97;5116237;28;19922;-70
2022/06/16 10:59:12;;;;;;;;;;;;;;;26.21;25.55;100013.66;5109966;28;19916;-69
2022/06/16 11:01:40;;;;;;;;;;;;;;;26.19;25.46;100015.09;5053532;28;20338;-69
2022/06/16 11:04:11;;;;;;;;;;;;;;;26.23;25.59;100013.34;5053943;28;20032;-70
2022/06/16 11:06:40;;;;;;;;;;;;;;;26.17;25.42;100015.38;5053923;28;19995;-69
2022/06/16 11:09:05;;;;;;;;;;;;;;;26.14;25.53;100018.72;5053693;28;19917;-69
2022/06/16 11:11:42;;;;;;;;;;;;;;;26.16;25.46;100021.16;5036601;28;19982;-68
2022/06/16 11:14:14;;;;;;;;;;;;;;;26.12;25.33;100022.88;5053780;28;19923;-69
2022/06/16 11:16:44;;;;;;;;;;;;;;;26.10;25.67;100014.16;5054019;28;19925;-70
2022/06/16 11:19:09;;;;;;;;;;;;;;;26.17;25.42;100020.84;5054483;28;19952;-70
2022/06/16 11:21:35;;;;;;;;;;;;;;;26.11;25.44;100013.84;5053996;28;19935;-68
2022/06/16 11:24:02;;;;;;;;;;;;;;;26.12;25.44;100009.19;5053208;28;19939;-68
2022/06/16 11:26:29;;;;;;;;;;;;;;;26.13;25.33;100013.53;5052792;28;19920;-68
2022/06/16 11:29:01;;;;;;;;;;;;;;;26.13;25.25;100011.63;5053230;28;20003;-70
2022/06/16 11:31:37;;;;;;;;;;;;;;;25.97;25.74;100004.78;5052720;28;19999;-70
2022/06/16 11:34:29;;;;;;;;;;;;;;;26.10;25.45;100009.50;5052263;28;20011;-69
2022/06/16 11:37:10;;;;;;;;;;;;;;;26.18;25.18;100007.97;5052484;28;20003;-69
2022/06/16 11:39:55;;;;;;;;;;;;;;;26.20;25.11;100016.72;5094933;28;19916;-68
2022/06/16 11:42:40;;;;;;;;;;;;;;;26.17;25.06;100017.31;5094421;28;19959;-68
2022/06/16 11:45:05;;;;;;;;;;;;;;;26.16;25.35;100018.41;5095117;28;19966;-69
2022/06/16 11:47:35;;;;;;;;;;;;;;;26.19;25.26;100020.56;5094687;28;19916;-68
2022/06/16 11:50:04;;;;;;;;;;;;;;;26.24;25.14;100029.50;5093592;28;19920;-69
2022/06/16 11:52:31;;;;;;;;;;;;;;;26.22;25.23;100014.47;5094085;28;19924;-69
2022/06/16 11:54:59;;;;;;;;;;;;;;;26.24;25.09;100004.84;5094389;28;19917;-69
2022/06/16 11:57:41;;;;;;;;;;;;;;;26.24;25.26;100007.56;5094672;28;19958;-70
2022/06/16 12:00:15;;;;;;;;;;;;;;;26.28;24.90;100002.31;5112320;28;19990;-69
2022/06/16 12:02:49;;;;;;;;;;;;;;;26.26;24.83;99993.59;5114774;28;19915;-70
2022/06/16 12:05:41;;;;;;;;;;;;;;;26.23;25.02;100005.13;5114269;28;19960;-70
2022/06/16 12:08:06;;;;;;;;;;;;;;;26.30;24.82;100002.84;5097584;28;19922;-70
2022/06/16 12:10:41;;;;;;;;;;;;;;;26.30;24.79;100005.56;5114470;28;20006;-70
2022/06/16 12:13:25;;;;;;;;;;;;;;;26.28;24.95;100002.31;5114973;28;19999;-70
2022/06/16 12:15:53;;;;;;;;;;;;;;;26.29;24.54;100006.69;5114419;28;20011;-70
2022/06/16 12:18:31;;;;;;;;;;;;;;;26.28;24.82;100006.97;5114494;28;19916;-70
2022/06/16 12:21:15;;;;;;;;;;;;;;;26.18;24.99;100002.50;5114172;28;20223;-70
2022/06/16 12:23:53;;;;;;;;;;;;;;;26.19;24.88;100004.13;5112932;28;20327;-70
2022/06/16 12:26:22;;;;;;;;;;;;;;;26.07;25.22;99998.31;5114260;28;19980;-71
2022/06/16 12:28:47;;;;;;;;;;;;;;;26.17;25.17;99998.94;5114546;28;19990;-70
2022/06/16 12:31:17;;;;;;;;;;;;;;;26.21;24.95;100001.91;5114398;28;20420;-70
2022/06/16 12:33:47;;;;;;;;;;;;;;;26.25;25.00;100002.94;5114219;28;19916;-71
2022/06/16 12:36:13;;;;;;;;;;;;;;;26.21;25.08;99993.69;5112906;28;19916;-71
2022/06/16 12:38:41;;;;;;;;;;;;;;;26.14;24.78;100006.97;5112564;28;19955;-70
2022/06/16 12:41:08;;;;;;;;;;;;;;;26.15;24.85;99997.63;5112837;28;19916;-70
2022/06/16 12:43:41;;;;;;;;;;;;;;;26.25;24.48;100002.94;5112771;28;19919;-70
2022/06/16 12:46:08;;;;;;;;;;;;;;;26.30;24.46;100000.09;5113810;28;19916;-70
2022/06/16 12:49:09;;;;;;;;;;;;;;;26.32;24.28;100003.34;5112619;28;19920;-70
2022/06/16 12:51:35;;;;;;;;;;;;;;;26.31;24.23;99998.97;5071031;28;20402;-70
2022/06/16 12:54:02;;;;;;;;;;;;;;;26.15;24.51;99997.63;5071115;28;20427;-71
2022/06/16 12:56:32;;;;;;;;;;;;;;;26.30;24.10;100004.75;5054691;28;20411;-70
2022/06/16 12:58:59;;;;;;;;;;;;;;;26.28;24.12;100005.03;5070829;28;19916;-70
2022/06/16 13:01:25;;;;;;;;;;;;;;;26.29;24.10;100001.19;5071115;28;19965;-70
2022/06/16 13:04:02;;;;;;;;;;;;;;;26.25;24.03;100000.19;5070763;28;20010;-71
2022/06/16 13:06:27;;;;;;;;;;;;;;;26.21;24.38;99989.00;5054392;28;20046;-71
2022/06/16 13:08:55;;;;;;;;;;;;;;;26.25;24.18;99994.72;5054521;28;20425;-71
2022/06/16 13:11:21;;;;;;;;;;;;;;;26.26;24.17;99993.59;5071342;28;20247;-71
2022/06/16 13:13:53;;;;;;;;;;;;;;;26.29;23.84;99986.69;5071484;28;20394;-70
2022/06/16 13:16:19;;;;;;;;;;;;;;;26.27;24.13;99989.75;5071180;28;19916;-70
2022/06/16 13:18:50;;;;;;;;;;;;;;;26.27;23.85;99988.91;5071316;28;20378;-71
2022/06/16 13:21:23;;;;;;;;;;;;;;;26.28;23.78;100005.03;5070991;28;20015;-70